sensor_id;sensor_type;location;lat;lon;timestamp;P1;durP1;ratioP1;P2;durP2;ratioP2
63120;SDS011;54478;48.684;20.114;2023-05-08T00:01:42;7.95;;;2.45;;
63120;SDS011;54478;48.684;20.114;2023-05-08T00:04:11;2.63;;;1.95;;
63120;SDS011;54478;48.684;20.114;2023-05-08T00:06:40;2.50;;;1.45;;
63120;SDS011;54478;48.684;20.114;2023-05-08T00:09:08;6.90;;;2.88;;
63120;SDS011;54478;48.684;20.114;2023-05-08T00:11:36;6.30;;;3.10;;
63120;SDS011;54478;48.684;20.114;2023-05-08T00:14:05;3.58;;;1.80;;
63120;SDS011;54478;48.684;20.114;2023-05-08T00:16:33;3.20;;;1.83;;
63120;SDS011;54478;48.684;20.114;2023-05-08T00:19:02;3.38;;;1.63;;
63120;SDS011;54478;48.684;20.114;2023-05-08T00:21:30;3.10;;;2.00;;
63120;SDS011;54478;48.684;20.114;2023-05-08T00:23:59;5.32;;;2.05;;
63120;SDS011;54478;48.684;20.114;2023-05-08T00:26:27;5.22;;;2.67;;
63120;SDS011;54478;48.684;20.114;2023-05-08T00:28:53;5.10;;;2.88;;
63120;SDS011;54478;48.684;20.114;2023-05-08T00:31:21;5.47;;;2.50;;
63120;SDS011;54478;48.684;20.114;2023-05-08T00:33:51;4.28;;;2.38;;
63120;SDS011;54478;48.684;20.114;2023-05-08T00:36:19;4.90;;;2.15;;
63120;SDS011;54478;48.684;20.114;2023-05-08T00:38:47;4.43;;;2.15;;
63120;SDS011;54478;48.684;20.114;2023-05-08T00:41:16;5.10;;;2.40;;
63120;SDS011;54478;48.684;20.114;2023-05-08T00:43:44;4.95;;;2.58;;
63120;SDS011;54478;48.684;20.114;2023-05-08T00:46:13;4.40;;;2.47;;
63120;SDS011;54478;48.684;20.114;2023-05-08T00:48:41;4.65;;;2.50;;
63120;SDS011;54478;48.684;20.114;2023-05-08T00:51:11;5.13;;;2.40;;
63120;SDS011;54478;48.684;20.114;2023-05-08T00:53:41;3.63;;;2.38;;
63120;SDS011;54478;48.684;20.114;2023-05-08T00:56:12;3.85;;;2.40;;
63120;SDS011;54478;48.684;20.114;2023-05-08T00:58:41;5.95;;;2.60;;
63120;SDS011;54478;48.684;20.114;2023-05-08T01:01:11;4.38;;;2.20;;
63120;SDS011;54478;48.684;20.114;2023-05-08T01:03:40;4.18;;;2.50;;
63120;SDS011;54478;48.684;20.114;2023-05-08T01:06:09;3.50;;;2.08;;
63120;SDS011;54478;48.684;20.114;2023-05-08T01:08:38;4.65;;;2.30;;
63120;SDS011;54478;48.684;20.114;2023-05-08T01:19:52;3.95;;;2.00;;
63120;SDS011;54478;48.684;20.114;2023-05-08T01:25:19;4.80;;;2.55;;
63120;SDS011;54478;48.684;20.114;2023-05-08T01:31:11;3.95;;;2.33;;
63120;SDS011;54478;48.684;20.114;2023-05-08T01:36:40;3.97;;;1.92;;
63120;SDS011;54478;48.684;20.114;2023-05-08T01:41:56;4.53;;;2.47;;
63120;SDS011;54478;48.684;20.114;2023-05-08T01:44:37;3.10;;;2.10;;
63120;SDS011;54478;48.684;20.114;2023-05-08T01:47:08;3.60;;;2.08;;
63120;SDS011;54478;48.684;20.114;2023-05-08T01:49:41;3.45;;;2.00;;
63120;SDS011;54478;48.684;20.114;2023-05-08T01:52:12;3.80;;;2.13;;
63120;SDS011;54478;48.684;20.114;2023-05-08T01:54:47;2.92;;;2.00;;
63120;SDS011;54478;48.684;20.114;2023-05-08T01:57:20;4.00;;;2.20;;
63120;SDS011;54478;48.684;20.114;2023-05-08T01:59:55;2.72;;;1.90;;
63120;SDS011;54478;48.684;20.114;2023-05-08T02:02:22;2.88;;;1.67;;
63120;SDS011;54478;48.684;20.114;2023-05-08T02:04:51;4.38;;;2.00;;
63120;SDS011;54478;48.684;20.114;2023-05-08T02:07:21;3.40;;;1.83;;
63120;SDS011;54478;48.684;20.114;2023-05-08T02:09:51;4.20;;;2.28;;
63120;SDS011;54478;48.684;20.114;2023-05-08T02:12:21;3.15;;;1.90;;
63120;SDS011;54478;48.684;20.114;2023-05-08T02:14:52;3.40;;;2.00;;
63120;SDS011;54478;48.684;20.114;2023-05-08T02:17:22;3.88;;;2.13;;
63120;SDS011;54478;48.684;20.114;2023-05-08T02:19:52;4.03;;;1.92;;
63120;SDS011;54478;48.684;20.114;2023-05-08T02:22:23;5.18;;;2.22;;
63120;SDS011;54478;48.684;20.114;2023-05-08T02:24:53;3.28;;;2.08;;
63120;SDS011;54478;48.684;20.114;2023-05-08T02:27:24;3.92;;;2.20;;
63120;SDS011;54478;48.684;20.114;2023-05-08T02:29:54;4.30;;;2.47;;
63120;SDS011;54478;48.684;20.114;2023-05-08T02:32:21;4.78;;;2.70;;
63120;SDS011;54478;48.684;20.114;2023-05-08T02:34:53;3.83;;;2.22;;
63120;SDS011;54478;48.684;20.114;2023-05-08T02:37:23;4.07;;;2.00;;
63120;SDS011;54478;48.684;20.114;2023-05-08T02:39:53;5.03;;;2.28;;
63120;SDS011;54478;48.684;20.114;2023-05-08T02:42:25;4.43;;;2.42;;
63120;SDS011;54478;48.684;20.114;2023-05-08T02:44:53;3.05;;;2.28;;
63120;SDS011;54478;48.684;20.114;2023-05-08T02:47:24;2.80;;;2.00;;
63120;SDS011;54478;48.684;20.114;2023-05-08T02:52:51;4.28;;;2.50;;
63120;SDS011;54478;48.684;20.114;2023-05-08T02:55:39;3.05;;;2.05;;
63120;SDS011;54478;48.684;20.114;2023-05-08T02:58:24;3.53;;;2.03;;
63120;SDS011;54478;48.684;20.114;2023-05-08T03:01:00;3.42;;;2.15;;
63120;SDS011;54478;48.684;20.114;2023-05-08T03:03:38;2.67;;;1.85;;
63120;SDS011;54478;48.684;20.114;2023-05-08T03:06:12;4.55;;;2.38;;
63120;SDS011;54478;48.684;20.114;2023-05-08T03:08:42;3.58;;;2.03;;
63120;SDS011;54478;48.684;20.114;2023-05-08T03:11:17;4.22;;;1.90;;
63120;SDS011;54478;48.684;20.114;2023-05-08T03:13:50;2.75;;;1.75;;
63120;SDS011;54478;48.684;20.114;2023-05-08T03:16:22;4.50;;;1.80;;
63120;SDS011;54478;48.684;20.114;2023-05-08T03:18:53;4.38;;;2.22;;
63120;SDS011;54478;48.684;20.114;2023-05-08T03:21:27;3.58;;;1.80;;
63120;SDS011;54478;48.684;20.114;2023-05-08T03:23:54;5.57;;;2.60;;
63120;SDS011;54478;48.684;20.114;2023-05-08T03:26:26;3.83;;;2.28;;
63120;SDS011;54478;48.684;20.114;2023-05-08T03:28:52;2.03;;;1.67;;
63120;SDS011;54478;48.684;20.114;2023-05-08T03:31:20;4.18;;;2.22;;
63120;SDS011;54478;48.684;20.114;2023-05-08T03:33:49;2.13;;;1.40;;
63120;SDS011;54478;48.684;20.114;2023-05-08T03:36:20;4.25;;;1.92;;
63120;SDS011;54478;48.684;20.114;2023-05-08T03:38:49;4.13;;;2.00;;
63120;SDS011;54478;48.684;20.114;2023-05-08T03:41:18;3.22;;;2.03;;
63120;SDS011;54478;48.684;20.114;2023-05-08T03:43:46;2.95;;;1.90;;
63120;SDS011;54478;48.684;20.114;2023-05-08T03:46:15;4.43;;;1.88;;
63120;SDS011;54478;48.684;20.114;2023-05-08T03:48:44;3.63;;;1.98;;
63120;SDS011;54478;48.684;20.114;2023-05-08T03:51:14;3.42;;;1.95;;
63120;SDS011;54478;48.684;20.114;2023-05-08T03:53:43;3.58;;;1.98;;
63120;SDS011;54478;48.684;20.114;2023-05-08T03:56:11;3.70;;;1.88;;
63120;SDS011;54478;48.684;20.114;2023-05-08T03:58:46;2.65;;;1.70;;
63120;SDS011;54478;48.684;20.114;2023-05-08T04:01:24;2.83;;;1.57;;
63120;SDS011;54478;48.684;20.114;2023-05-08T04:04:18;2.92;;;1.60;;
63120;SDS011;54478;48.684;20.114;2023-05-08T04:07:34;2.05;;;1.38;;
63120;SDS011;54478;48.684;20.114;2023-05-08T04:10:02;3.72;;;1.70;;
63120;SDS011;54478;48.684;20.114;2023-05-08T04:12:53;3.88;;;1.90;;
63120;SDS011;54478;48.684;20.114;2023-05-08T04:15:30;2.85;;;1.52;;
63120;SDS011;54478;48.684;20.114;2023-05-08T04:18:05;2.42;;;1.50;;
63120;SDS011;54478;48.684;20.114;2023-05-08T04:20:33;7.25;;;3.78;;
63120;SDS011;54478;48.684;20.114;2023-05-08T04:23:02;14.40;;;7.15;;
63120;SDS011;54478;48.684;20.114;2023-05-08T04:25:34;9.40;;;5.50;;
63120;SDS011;54478;48.684;20.114;2023-05-08T04:28:01;5.57;;;2.70;;
63120;SDS011;54478;48.684;20.114;2023-05-08T04:30:31;4.63;;;2.90;;
63120;SDS011;54478;48.684;20.114;2023-05-08T04:33:01;7.20;;;3.08;;
63120;SDS011;54478;48.684;20.114;2023-05-08T04:35:32;5.10;;;2.70;;
63120;SDS011;54478;48.684;20.114;2023-05-08T04:38:01;4.07;;;1.90;;
63120;SDS011;54478;48.684;20.114;2023-05-08T04:40:30;4.65;;;2.20;;
63120;SDS011;54478;48.684;20.114;2023-05-08T04:42:58;4.55;;;1.95;;
63120;SDS011;54478;48.684;20.114;2023-05-08T04:45:26;2.60;;;1.65;;
63120;SDS011;54478;48.684;20.114;2023-05-08T04:47:55;3.10;;;1.63;;
63120;SDS011;54478;48.684;20.114;2023-05-08T04:50:23;3.53;;;1.80;;
63120;SDS011;54478;48.684;20.114;2023-05-08T04:52:52;3.83;;;2.00;;
63120;SDS011;54478;48.684;20.114;2023-05-08T04:55:20;8.23;;;2.53;;
63120;SDS011;54478;48.684;20.114;2023-05-08T04:57:48;4.72;;;1.95;;
63120;SDS011;54478;48.684;20.114;2023-05-08T05:00:17;3.78;;;2.03;;
63120;SDS011;54478;48.684;20.114;2023-05-08T05:02:45;3.17;;;1.92;;
63120;SDS011;54478;48.684;20.114;2023-05-08T05:05:13;2.85;;;1.63;;
63120;SDS011;54478;48.684;20.114;2023-05-08T05:07:42;2.70;;;1.80;;
63120;SDS011;54478;48.684;20.114;2023-05-08T05:10:10;3.00;;;1.70;;
63120;SDS011;54478;48.684;20.114;2023-05-08T05:12:36;12.07;;;5.72;;
63120;SDS011;54478;48.684;20.114;2023-05-08T05:15:05;4.13;;;2.08;;
63120;SDS011;54478;48.684;20.114;2023-05-08T05:17:34;1.58;;;1.10;;
63120;SDS011;54478;48.684;20.114;2023-05-08T05:20:02;3.60;;;1.55;;
63120;SDS011;54478;48.684;20.114;2023-05-08T05:22:33;4.07;;;1.75;;
63120;SDS011;54478;48.684;20.114;2023-05-08T05:25:01;3.47;;;2.00;;
63120;SDS011;54478;48.684;20.114;2023-05-08T05:27:26;3.00;;;1.70;;
63120;SDS011;54478;48.684;20.114;2023-05-08T05:29:55;4.38;;;1.65;;
63120;SDS011;54478;48.684;20.114;2023-05-08T05:32:24;5.43;;;2.72;;
63120;SDS011;54478;48.684;20.114;2023-05-08T05:34:52;5.82;;;2.78;;
63120;SDS011;54478;48.684;20.114;2023-05-08T05:37:21;3.75;;;1.60;;
63120;SDS011;54478;48.684;20.114;2023-05-08T05:39:51;2.17;;;1.40;;
63120;SDS011;54478;48.684;20.114;2023-05-08T05:42:19;3.85;;;1.50;;
63120;SDS011;54478;48.684;20.114;2023-05-08T05:44:48;2.10;;;1.17;;
63120;SDS011;54478;48.684;20.114;2023-05-08T05:47:16;1.70;;;1.02;;
63120;SDS011;54478;48.684;20.114;2023-05-08T05:49:45;2.75;;;1.23;;
63120;SDS011;54478;48.684;20.114;2023-05-08T05:52:16;2.38;;;1.05;;
63120;SDS011;54478;48.684;20.114;2023-05-08T05:54:44;0.90;;;0.77;;
63120;SDS011;54478;48.684;20.114;2023-05-08T05:57:13;2.05;;;0.93;;
63120;SDS011;54478;48.684;20.114;2023-05-08T05:59:42;1.55;;;0.80;;
63120;SDS011;54478;48.684;20.114;2023-05-08T06:02:10;1.05;;;0.80;;
63120;SDS011;54478;48.684;20.114;2023-05-08T06:04:42;1.08;;;0.77;;
63120;SDS011;54478;48.684;20.114;2023-05-08T06:07:11;1.20;;;1.00;;
63120;SDS011;54478;48.684;20.114;2023-05-08T06:09:39;1.40;;;0.80;;
63120;SDS011;54478;48.684;20.114;2023-05-08T06:12:07;2.53;;;1.02;;
63120;SDS011;54478;48.684;20.114;2023-05-08T06:14:36;1.45;;;1.00;;
63120;SDS011;54478;48.684;20.114;2023-05-08T06:17:04;1.67;;;1.17;;
63120;SDS011;54478;48.684;20.114;2023-05-08T06:19:33;1.70;;;0.98;;
63120;SDS011;54478;48.684;20.114;2023-05-08T06:22:01;1.10;;;0.80;;
63120;SDS011;54478;48.684;20.114;2023-05-08T06:24:30;1.60;;;1.10;;
63120;SDS011;54478;48.684;20.114;2023-05-08T06:26:55;1.33;;;0.80;;
63120;SDS011;54478;48.684;20.114;2023-05-08T06:29:24;2.45;;;1.30;;
63120;SDS011;54478;48.684;20.114;2023-05-08T06:31:52;1.20;;;0.85;;
63120;SDS011;54478;48.684;20.114;2023-05-08T06:34:20;1.38;;;1.00;;
63120;SDS011;54478;48.684;20.114;2023-05-08T06:36:48;1.92;;;0.80;;
63120;SDS011;54478;48.684;20.114;2023-05-08T06:39:17;1.80;;;0.93;;
63120;SDS011;54478;48.684;20.114;2023-05-08T06:41:48;2.63;;;0.98;;
63120;SDS011;54478;48.684;20.114;2023-05-08T06:44:16;1.10;;;0.80;;
63120;SDS011;54478;48.684;20.114;2023-05-08T06:46:45;1.40;;;0.90;;
63120;SDS011;54478;48.684;20.114;2023-05-08T06:49:13;1.67;;;0.80;;
63120;SDS011;54478;48.684;20.114;2023-05-08T06:51:42;1.98;;;0.95;;
63120;SDS011;54478;48.684;20.114;2023-05-08T06:54:10;1.45;;;0.90;;
63120;SDS011;54478;48.684;20.114;2023-05-08T06:56:38;0.85;;;0.82;;
63120;SDS011;54478;48.684;20.114;2023-05-08T06:59:06;1.60;;;1.00;;
63120;SDS011;54478;48.684;20.114;2023-05-08T07:01:35;1.73;;;0.98;;
63120;SDS011;54478;48.684;20.114;2023-05-08T07:04:04;1.35;;;0.95;;
63120;SDS011;54478;48.684;20.114;2023-05-08T07:06:32;2.17;;;1.17;;
63120;SDS011;54478;48.684;20.114;2023-05-08T07:09:01;2.63;;;1.00;;
63120;SDS011;54478;48.684;20.114;2023-05-08T07:11:30;3.13;;;1.00;;
63120;SDS011;54478;48.684;20.114;2023-05-08T07:13:58;0.80;;;0.70;;
63120;SDS011;54478;48.684;20.114;2023-05-08T07:16:27;1.70;;;1.10;;
63120;SDS011;54478;48.684;20.114;2023-05-08T07:18:55;1.48;;;1.00;;
63120;SDS011;54478;48.684;20.114;2023-05-08T07:21:24;1.20;;;1.08;;
63120;SDS011;54478;48.684;20.114;2023-05-08T07:23:52;2.17;;;1.33;;
63120;SDS011;54478;48.684;20.114;2023-05-08T07:26:21;0.90;;;0.90;;
63120;SDS011;54478;48.684;20.114;2023-05-08T07:28:47;2.05;;;1.10;;
63120;SDS011;54478;48.684;20.114;2023-05-08T07:31:15;3.22;;;1.35;;
63120;SDS011;54478;48.684;20.114;2023-05-08T07:33:44;1.52;;;1.08;;
63120;SDS011;54478;48.684;20.114;2023-05-08T07:36:13;1.55;;;1.00;;
63120;SDS011;54478;48.684;20.114;2023-05-08T07:38:42;2.20;;;1.10;;
63120;SDS011;54478;48.684;20.114;2023-05-08T07:41:10;1.48;;;1.02;;
63120;SDS011;54478;48.684;20.114;2023-05-08T07:43:39;2.28;;;1.02;;
63120;SDS011;54478;48.684;20.114;2023-05-08T07:46:07;1.10;;;1.00;;
63120;SDS011;54478;48.684;20.114;2023-05-08T07:48:36;1.80;;;1.13;;
63120;SDS011;54478;48.684;20.114;2023-05-08T07:51:04;1.30;;;1.02;;
63120;SDS011;54478;48.684;20.114;2023-05-08T07:53:32;1.75;;;1.15;;
63120;SDS011;54478;48.684;20.114;2023-05-08T07:56:01;2.10;;;1.23;;
63120;SDS011;54478;48.684;20.114;2023-05-08T07:58:29;1.52;;;1.02;;
63120;SDS011;54478;48.684;20.114;2023-05-08T08:00:58;1.40;;;1.15;;
63120;SDS011;54478;48.684;20.114;2023-05-08T08:03:26;1.88;;;1.33;;
63120;SDS011;54478;48.684;20.114;2023-05-08T08:05:55;2.28;;;1.27;;
63120;SDS011;54478;48.684;20.114;2023-05-08T08:08:23;2.47;;;1.20;;
63120;SDS011;54478;48.684;20.114;2023-05-08T08:10:52;2.40;;;1.10;;
63120;SDS011;54478;48.684;20.114;2023-05-08T08:13:21;1.40;;;1.30;;
63120;SDS011;54478;48.684;20.114;2023-05-08T08:15:49;2.25;;;1.35;;
63120;SDS011;54478;48.684;20.114;2023-05-08T08:18:18;1.33;;;1.13;;
63120;SDS011;54478;48.684;20.114;2023-05-08T08:20:47;1.60;;;1.20;;
63120;SDS011;54478;48.684;20.114;2023-05-08T08:23:15;1.40;;;1.20;;
63120;SDS011;54478;48.684;20.114;2023-05-08T08:25:44;1.80;;;1.40;;
63120;SDS011;54478;48.684;20.114;2023-05-08T08:28:09;1.42;;;1.10;;
63120;SDS011;54478;48.684;20.114;2023-05-08T08:30:37;1.58;;;1.05;;
63120;SDS011;54478;48.684;20.114;2023-05-08T08:33:06;1.75;;;1.17;;
63120;SDS011;54478;48.684;20.114;2023-05-08T08:35:34;1.98;;;0.90;;
63120;SDS011;54478;48.684;20.114;2023-05-08T08:38:03;1.75;;;1.20;;
63120;SDS011;54478;48.684;20.114;2023-05-08T08:40:31;2.28;;;1.13;;
63120;SDS011;54478;48.684;20.114;2023-05-08T08:42:59;1.88;;;1.00;;
63120;SDS011;54478;48.684;20.114;2023-05-08T08:45:28;1.75;;;1.10;;
63120;SDS011;54478;48.684;20.114;2023-05-08T08:48:01;2.08;;;1.40;;
63120;SDS011;54478;48.684;20.114;2023-05-08T08:50:31;1.77;;;1.40;;
63120;SDS011;54478;48.684;20.114;2023-05-08T08:53:09;2.85;;;1.45;;
63120;SDS011;54478;48.684;20.114;2023-05-08T08:55:43;2.40;;;1.40;;
63120;SDS011;54478;48.684;20.114;2023-05-08T08:58:20;1.85;;;0.95;;
63120;SDS011;54478;48.684;20.114;2023-05-08T09:00:53;2.50;;;1.10;;
63120;SDS011;54478;48.684;20.114;2023-05-08T09:03:20;3.17;;;1.73;;
63120;SDS011;54478;48.684;20.114;2023-05-08T09:05:48;1.77;;;1.42;;
63120;SDS011;54478;48.684;20.114;2023-05-08T09:08:18;2.60;;;1.38;;
63120;SDS011;54478;48.684;20.114;2023-05-08T09:10:47;3.75;;;1.70;;
63120;SDS011;54478;48.684;20.114;2023-05-08T09:13:15;1.83;;;1.40;;
63120;SDS011;54478;48.684;20.114;2023-05-08T09:15:46;3.70;;;1.65;;
63120;SDS011;54478;48.684;20.114;2023-05-08T09:18:15;4.22;;;2.42;;
63120;SDS011;54478;48.684;20.114;2023-05-08T09:20:44;1.88;;;1.33;;
63120;SDS011;54478;48.684;20.114;2023-05-08T09:23:13;1.33;;;1.20;;
63120;SDS011;54478;48.684;20.114;2023-05-08T09:25:44;2.22;;;1.70;;
63120;SDS011;54478;48.684;20.114;2023-05-08T09:28:19;3.75;;;1.83;;
63120;SDS011;54478;48.684;20.114;2023-05-08T09:30:51;2.15;;;1.30;;
63120;SDS011;54478;48.684;20.114;2023-05-08T09:33:21;2.33;;;1.60;;
63120;SDS011;54478;48.684;20.114;2023-05-08T09:35:54;3.38;;;1.60;;
63120;SDS011;54478;48.684;20.114;2023-05-08T09:38:36;3.05;;;1.10;;
63120;SDS011;54478;48.684;20.114;2023-05-08T09:41:06;2.30;;;1.42;;
63120;SDS011;54478;48.684;20.114;2023-05-08T09:43:34;2.38;;;1.88;;
63120;SDS011;54478;48.684;20.114;2023-05-08T09:46:19;2.88;;;1.65;;
63120;SDS011;54478;48.684;20.114;2023-05-08T09:48:50;3.55;;;1.88;;
63120;SDS011;54478;48.684;20.114;2023-05-08T09:51:20;3.15;;;1.60;;
63120;SDS011;54478;48.684;20.114;2023-05-08T09:53:50;1.95;;;1.30;;
63120;SDS011;54478;48.684;20.114;2023-05-08T09:56:33;2.05;;;1.33;;
63120;SDS011;54478;48.684;20.114;2023-05-08T09:59:22;2.90;;;1.85;;
63120;SDS011;54478;48.684;20.114;2023-05-08T10:01:54;2.47;;;1.50;;
63120;SDS011;54478;48.684;20.114;2023-05-08T10:04:30;2.25;;;1.42;;
63120;SDS011;54478;48.684;20.114;2023-05-08T10:07:02;1.42;;;1.25;;
63120;SDS011;54478;48.684;20.114;2023-05-08T10:09:29;2.35;;;1.50;;
63120;SDS011;54478;48.684;20.114;2023-05-08T10:11:58;2.83;;;1.63;;
63120;SDS011;54478;48.684;20.114;2023-05-08T10:14:26;1.98;;;1.48;;
63120;SDS011;54478;48.684;20.114;2023-05-08T10:16:54;1.70;;;1.40;;
63120;SDS011;54478;48.684;20.114;2023-05-08T10:19:25;1.77;;;1.20;;
63120;SDS011;54478;48.684;20.114;2023-05-08T10:21:55;1.88;;;1.17;;
63120;SDS011;54478;48.684;20.114;2023-05-08T10:24:25;1.63;;;1.38;;
63120;SDS011;54478;48.684;20.114;2023-05-08T10:27:37;2.38;;;1.63;;
63120;SDS011;54478;48.684;20.114;2023-05-08T10:30:02;4.18;;;1.70;;
63120;SDS011;54478;48.684;20.114;2023-05-08T10:32:46;4.50;;;1.75;;
63120;SDS011;54478;48.684;20.114;2023-05-08T10:35:16;4.63;;;1.27;;
63120;SDS011;54478;48.684;20.114;2023-05-08T10:37:46;1.70;;;1.35;;
63120;SDS011;54478;48.684;20.114;2023-05-08T10:40:16;1.63;;;1.42;;
63120;SDS011;54478;48.684;20.114;2023-05-08T10:42:45;2.92;;;1.90;;
63120;SDS011;54478;48.684;20.114;2023-05-08T10:45:14;8.07;;;1.85;;
63120;SDS011;54478;48.684;20.114;2023-05-08T10:50:53;6.38;;;1.55;;
63120;SDS011;54478;48.684;20.114;2023-05-08T10:53:37;3.22;;;1.65;;
63120;SDS011;54478;48.684;20.114;2023-05-08T10:56:06;3.08;;;1.90;;
63120;SDS011;54478;48.684;20.114;2023-05-08T10:58:32;5.05;;;1.50;;
63120;SDS011;54478;48.684;20.114;2023-05-08T11:03:32;2.38;;;1.60;;
63120;SDS011;54478;48.684;20.114;2023-05-08T11:06:03;3.75;;;2.20;;
63120;SDS011;54478;48.684;20.114;2023-05-08T11:08:31;8.57;;;2.40;;
63120;SDS011;54478;48.684;20.114;2023-05-08T11:16:00;2.85;;;1.80;;
63120;SDS011;54478;48.684;20.114;2023-05-08T11:18:29;3.28;;;2.15;;
63120;SDS011;54478;48.684;20.114;2023-05-08T11:20:58;3.70;;;2.00;;
63120;SDS011;54478;48.684;20.114;2023-05-08T11:23:27;1.90;;;1.52;;
63120;SDS011;54478;48.684;20.114;2023-05-08T11:28:31;1.90;;;1.42;;
63120;SDS011;54478;48.684;20.114;2023-05-08T11:31:17;3.67;;;1.77;;
63120;SDS011;54478;48.684;20.114;2023-05-08T11:33:42;2.78;;;1.67;;
63120;SDS011;54478;48.684;20.114;2023-05-08T11:38:43;2.90;;;2.00;;
63120;SDS011;54478;48.684;20.114;2023-05-08T11:41:32;3.00;;;1.80;;
63120;SDS011;54478;48.684;20.114;2023-05-08T11:49:24;2.47;;;1.80;;
63120;SDS011;54478;48.684;20.114;2023-05-08T11:51:51;5.30;;;2.03;;
63120;SDS011;54478;48.684;20.114;2023-05-08T11:54:22;2.95;;;2.00;;
63120;SDS011;54478;48.684;20.114;2023-05-08T11:56:51;2.78;;;1.92;;
63120;SDS011;54478;48.684;20.114;2023-05-08T11:59:21;4.18;;;2.00;;
63120;SDS011;54478;48.684;20.114;2023-05-08T12:01:49;3.72;;;2.13;;
63120;SDS011;54478;48.684;20.114;2023-05-08T12:04:18;3.40;;;2.20;;
63120;SDS011;54478;48.684;20.114;2023-05-08T12:06:46;6.28;;;2.00;;
63120;SDS011;54478;48.684;20.114;2023-05-08T12:09:18;8.60;;;2.63;;
63120;SDS011;54478;48.684;20.114;2023-05-08T12:11:50;6.47;;;2.08;;
63120;SDS011;54478;48.684;20.114;2023-05-08T12:14:24;3.70;;;2.30;;
63120;SDS011;54478;48.684;20.114;2023-05-08T12:16:50;9.05;;;2.55;;
63120;SDS011;54478;48.684;20.114;2023-05-08T12:19:18;3.63;;;2.35;;
63120;SDS011;54478;48.684;20.114;2023-05-08T12:21:47;3.85;;;2.47;;
63120;SDS011;54478;48.684;20.114;2023-05-08T12:24:16;3.42;;;2.58;;
63120;SDS011;54478;48.684;20.114;2023-05-08T12:26:47;5.22;;;2.25;;
63120;SDS011;54478;48.684;20.114;2023-05-08T12:29:19;6.57;;;2.70;;
63120;SDS011;54478;48.684;20.114;2023-05-08T12:31:48;4.57;;;2.83;;
63120;SDS011;54478;48.684;20.114;2023-05-08T12:34:16;3.95;;;3.05;;
63120;SDS011;54478;48.684;20.114;2023-05-08T12:36:45;4.32;;;3.03;;
63120;SDS011;54478;48.684;20.114;2023-05-08T12:39:14;6.72;;;2.83;;
63120;SDS011;54478;48.684;20.114;2023-05-08T12:41:50;3.95;;;2.72;;
63120;SDS011;54478;48.684;20.114;2023-05-08T12:44:23;3.47;;;2.70;;
63120;SDS011;54478;48.684;20.114;2023-05-08T12:46:53;5.53;;;3.00;;
63120;SDS011;54478;48.684;20.114;2023-05-08T12:49:27;4.20;;;3.20;;
63120;SDS011;54478;48.684;20.114;2023-05-08T12:52:04;5.03;;;2.92;;
63120;SDS011;54478;48.684;20.114;2023-05-08T12:54:36;4.82;;;3.15;;
63120;SDS011;54478;48.684;20.114;2023-05-08T12:57:13;9.13;;;3.35;;
63120;SDS011;54478;48.684;20.114;2023-05-08T12:59:44;4.45;;;3.33;;
63120;SDS011;54478;48.684;20.114;2023-05-08T13:02:14;5.07;;;3.60;;
63120;SDS011;54478;48.684;20.114;2023-05-08T13:04:53;3.65;;;2.70;;
63120;SDS011;54478;48.684;20.114;2023-05-08T13:07:20;6.65;;;3.15;;
63120;SDS011;54478;48.684;20.114;2023-05-08T13:09:56;5.30;;;2.80;;
63120;SDS011;54478;48.684;20.114;2023-05-08T13:12:22;5.07;;;3.00;;
63120;SDS011;54478;48.684;20.114;2023-05-08T13:14:51;3.67;;;3.15;;
63120;SDS011;54478;48.684;20.114;2023-05-08T13:17:19;5.50;;;3.47;;
63120;SDS011;54478;48.684;20.114;2023-05-08T13:19:47;4.35;;;2.90;;
63120;SDS011;54478;48.684;20.114;2023-05-08T13:22:15;5.13;;;2.92;;
63120;SDS011;54478;48.684;20.114;2023-05-08T13:24:43;5.25;;;3.35;;
63120;SDS011;54478;48.684;20.114;2023-05-08T13:27:09;4.15;;;3.30;;
63120;SDS011;54478;48.684;20.114;2023-05-08T13:29:37;6.65;;;3.42;;
63120;SDS011;54478;48.684;20.114;2023-05-08T13:32:05;6.07;;;3.55;;
63120;SDS011;54478;48.684;20.114;2023-05-08T13:34:34;4.50;;;3.55;;
63120;SDS011;54478;48.684;20.114;2023-05-08T13:37:02;21.85;;;4.03;;
63120;SDS011;54478;48.684;20.114;2023-05-08T13:39:31;6.40;;;4.10;;
63120;SDS011;54478;48.684;20.114;2023-05-08T13:42:04;4.72;;;3.17;;
63120;SDS011;54478;48.684;20.114;2023-05-08T13:44:32;8.13;;;3.60;;
63120;SDS011;54478;48.684;20.114;2023-05-08T13:47:00;6.20;;;4.07;;
63120;SDS011;54478;48.684;20.114;2023-05-08T13:49:29;6.70;;;3.40;;
63120;SDS011;54478;48.684;20.114;2023-05-08T13:51:57;5.18;;;3.50;;
63120;SDS011;54478;48.684;20.114;2023-05-08T13:54:25;7.30;;;3.53;;
63120;SDS011;54478;48.684;20.114;2023-05-08T13:56:54;6.30;;;3.60;;
63120;SDS011;54478;48.684;20.114;2023-05-08T13:59:22;7.47;;;4.03;;
63120;SDS011;54478;48.684;20.114;2023-05-08T14:01:50;8.82;;;3.70;;
63120;SDS011;54478;48.684;20.114;2023-05-08T14:04:19;4.63;;;3.50;;
63120;SDS011;54478;48.684;20.114;2023-05-08T14:06:47;4.55;;;3.40;;
63120;SDS011;54478;48.684;20.114;2023-05-08T14:09:16;7.20;;;3.08;;
63120;SDS011;54478;48.684;20.114;2023-05-08T14:11:45;4.45;;;3.22;;
63120;SDS011;54478;48.684;20.114;2023-05-08T14:14:13;7.47;;;3.83;;
63120;SDS011;54478;48.684;20.114;2023-05-08T14:16:41;5.88;;;3.30;;
63120;SDS011;54478;48.684;20.114;2023-05-08T14:19:10;10.00;;;3.63;;
63120;SDS011;54478;48.684;20.114;2023-05-08T14:21:38;3.65;;;3.15;;
63120;SDS011;54478;48.684;20.114;2023-05-08T14:24:07;4.38;;;3.53;;
63120;SDS011;54478;48.684;20.114;2023-05-08T14:26:35;3.90;;;3.15;;
63120;SDS011;54478;48.684;20.114;2023-05-08T14:29:04;4.57;;;3.33;;
63120;SDS011;54478;48.684;20.114;2023-05-08T14:31:33;4.60;;;3.33;;
63120;SDS011;54478;48.684;20.114;2023-05-08T14:34:01;3.35;;;2.60;;
63120;SDS011;54478;48.684;20.114;2023-05-08T14:36:29;3.58;;;2.90;;
63120;SDS011;54478;48.684;20.114;2023-05-08T14:38:58;4.75;;;3.25;;
63120;SDS011;54478;48.684;20.114;2023-05-08T14:41:30;3.55;;;2.80;;
63120;SDS011;54478;48.684;20.114;2023-05-08T14:43:59;5.47;;;3.00;;
63120;SDS011;54478;48.684;20.114;2023-05-08T14:46:28;9.18;;;4.22;;
63120;SDS011;54478;48.684;20.114;2023-05-08T14:48:56;8.00;;;3.25;;
63120;SDS011;54478;48.684;20.114;2023-05-08T14:51:24;4.57;;;3.53;;
63120;SDS011;54478;48.684;20.114;2023-05-08T14:53:53;5.68;;;3.20;;
63120;SDS011;54478;48.684;20.114;2023-05-08T14:56:21;4.03;;;3.08;;
63120;SDS011;54478;48.684;20.114;2023-05-08T14:58:53;6.63;;;3.93;;
63120;SDS011;54478;48.684;20.114;2023-05-08T15:01:22;5.63;;;3.40;;
63120;SDS011;54478;48.684;20.114;2023-05-08T15:03:50;6.22;;;3.47;;
63120;SDS011;54478;48.684;20.114;2023-05-08T15:06:20;4.30;;;3.15;;
63120;SDS011;54478;48.684;20.114;2023-05-08T15:08:49;5.82;;;3.33;;
63120;SDS011;54478;48.684;20.114;2023-05-08T15:11:18;4.18;;;2.65;;
63120;SDS011;54478;48.684;20.114;2023-05-08T15:13:47;4.30;;;2.80;;
63120;SDS011;54478;48.684;20.114;2023-05-08T15:16:15;2.88;;;2.40;;
63120;SDS011;54478;48.684;20.114;2023-05-08T15:18:43;5.10;;;2.80;;
63120;SDS011;54478;48.684;20.114;2023-05-08T15:21:12;3.33;;;2.80;;
63120;SDS011;54478;48.684;20.114;2023-05-08T15:23:40;4.03;;;3.00;;
63120;SDS011;54478;48.684;20.114;2023-05-08T15:26:08;4.07;;;2.63;;
63120;SDS011;54478;48.684;20.114;2023-05-08T15:28:34;5.00;;;3.03;;
63120;SDS011;54478;48.684;20.114;2023-05-08T15:31:02;3.85;;;3.00;;
63120;SDS011;54478;48.684;20.114;2023-05-08T15:33:32;3.50;;;2.60;;
63120;SDS011;54478;48.684;20.114;2023-05-08T15:36:00;6.82;;;3.17;;